Terminal Aerodrome Forecast
Issued by NWS

Home | Current Version | Previous Version | Text Only | Print | Product List | Glossary On
Versions: 1 2 3 4 5 6 7 8 9 10 11 12 13 14 15 16 17 18
086
FTPA31 PHFO 192336
TAFHNY
TAF
PHNY 192336Z 2000/2024 04015KT P6SM VCSH SCT025 BKN040
     FM200500 05010KT P6SM FEW020 SCT040
     FM202000 04015KT P6SM VCSH SCT025 BKN040=

USA.gov is the U.S. government's official web portal to all federal, state and local government web resources and services.